createdAt,value
2019-04-10T00:03:27.858Z,31.60
2019-04-10T00:07:34.711Z,30.40
2019-04-10T00:11:47.257Z,30.93
2019-04-10T00:15:59.720Z,31.40
2019-04-10T00:20:12.726Z,33.77
2019-04-10T00:24:26.045Z,33.57
2019-04-10T00:28:39.323Z,33.47
2019-04-10T00:32:52.301Z,34.13
2019-04-10T00:37:05.763Z,34.30
2019-04-10T00:41:18.280Z,32.53
2019-04-10T00:45:30.602Z,34.40
2019-04-10T00:49:44.095Z,36.97
2019-04-10T00:53:57.272Z,37.03
2019-04-10T00:58:09.989Z,37.47
2019-04-10T01:02:22.775Z,38.57
2019-04-10T01:06:36.570Z,37.13
2019-04-10T01:10:50.514Z,38.53
2019-04-10T01:15:03.664Z,39.13
2019-04-10T01:19:17.534Z,39.23
2019-04-10T01:23:30.893Z,40.03
2019-04-10T01:27:44.469Z,41.17
2019-04-10T01:31:56.892Z,42.27
2019-04-10T01:36:09.205Z,43.17
2019-04-10T01:40:23.278Z,42.43
2019-04-10T01:44:36.443Z,43.03
2019-04-10T01:48:49.860Z,42.33
2019-04-10T01:53:02.254Z,43.63
2019-04-10T01:57:15.140Z,44.20
2019-04-10T02:01:36.627Z,45.10
2019-04-10T02:05:49.247Z,46.60
2019-04-10T02:10:02.109Z,45.97
2019-04-10T02:14:14.577Z,44.57
2019-04-10T02:18:27.685Z,45.43
2019-04-10T02:22:40.544Z,46.47
2019-04-10T02:26:54.074Z,46.00
2019-04-10T02:31:07.106Z,43.37
2019-04-10T02:35:22.058Z,47.93
2019-04-10T02:39:40.155Z,46.37
2019-04-10T02:43:47.993Z,44.97
2019-04-10T02:48:01.688Z,45.90
2019-04-10T02:52:14.865Z,46.43
2019-04-10T02:56:28.527Z,46.03
2019-04-10T03:00:42.118Z,44.43
2019-04-10T03:04:55.205Z,47.70
2019-04-10T03:09:27.772Z,43.17
2019-04-10T03:13:23.948Z,45.00
2019-04-10T03:17:36.723Z,44.07
2019-04-10T03:21:49.555Z,45.87
2019-04-10T03:26:02.024Z,44.47
2019-04-10T03:30:15.436Z,43.67
2019-04-10T03:34:31.383Z,43.03
2019-04-10T03:38:55.253Z,43.17
2019-04-10T03:42:57.239Z,41.53
2019-04-10T03:47:09.932Z,42.23
2019-04-10T03:51:22.833Z,41.67
2019-04-10T03:55:36.830Z,38.53
2019-04-10T03:59:49.726Z,42.03
2019-04-10T04:04:02.689Z,41.63
2019-04-10T04:08:15.393Z,43.13
2019-04-10T04:12:28.722Z,44.47
2019-04-10T04:16:41.527Z,44.00
2019-04-10T04:20:55.048Z,40.77
2019-04-10T04:25:08.693Z,42.40
2019-04-10T04:29:22.589Z,40.10
2019-04-10T04:33:36.109Z,38.30
2019-04-10T04:37:48.859Z,35.87
2019-04-10T04:42:01.266Z,37.37
2019-04-10T04:46:14.134Z,35.27
2019-04-10T04:50:28.009Z,38.67
2019-04-10T04:54:41.509Z,33.47
2019-04-10T04:58:53.950Z,33.33
2019-04-10T05:03:06.314Z,35.87
2019-04-10T05:07:20.343Z,30.20
2019-04-10T05:11:34.173Z,31.47
2019-04-10T05:15:46.740Z,27.50
2019-04-10T05:19:59.110Z,27.60
2019-04-10T05:24:12.006Z,26.20
2019-04-10T05:28:24.600Z,25.13
2019-04-10T05:32:37.588Z,29.63
2019-04-10T05:36:51.624Z,31.80
2019-04-10T05:41:04.909Z,31.37
2019-04-10T05:45:17.704Z,32.97
2019-04-10T05:49:31.066Z,31.27
2019-04-10T05:53:43.698Z,29.03
2019-04-10T05:57:58.001Z,32.43
2019-04-10T06:02:10.176Z,33.60
2019-04-10T06:06:22.589Z,33.27
2019-04-10T06:10:35.542Z,28.57
2019-04-10T06:14:48.511Z,27.87
2019-04-10T06:19:01.818Z,30.53
2019-04-10T06:23:15.001Z,34.07
2019-04-10T06:27:28.309Z,30.03
2019-04-10T06:31:41.020Z,29.60
2019-04-10T06:35:55.071Z,31.77
2019-04-10T06:40:18.145Z,31.33
2019-04-10T06:44:22.215Z,31.67
2019-04-10T06:48:36.187Z,34.00
2019-04-10T06:52:49.296Z,35.00
2019-04-10T06:57:02.760Z,33.73
2019-04-10T07:01:15.262Z,33.70
2019-04-10T07:05:37.105Z,34.70
2019-04-10T07:09:42.183Z,34.77
2019-04-10T07:13:55.214Z,36.20
2019-04-10T07:18:14.454Z,38.00
2019-04-10T07:22:23.130Z,38.40
2019-04-10T07:26:41.435Z,36.43
2019-04-10T07:30:50.263Z,37.83
2019-04-10T07:35:03.278Z,38.70
2019-04-10T07:39:17.246Z,37.97
2019-04-10T07:43:30.639Z,39.70
2019-04-10T07:47:44.100Z,38.33
2019-04-10T07:51:56.634Z,41.20
2019-04-10T07:56:13.551Z,37.77
2019-04-10T08:00:25.191Z,36.87
2019-04-10T08:04:38.085Z,35.97
2019-04-10T08:08:51.247Z,35.07
2019-04-10T08:13:04.534Z,37.40
2019-04-10T08:17:17.142Z,35.13
2019-04-10T08:21:29.566Z,35.37
2019-04-10T08:25:43.106Z,34.67
2019-04-10T08:29:56.872Z,35.13
2019-04-10T08:34:09.605Z,31.77
2019-04-10T08:38:22.488Z,34.20
2019-04-10T08:42:35.251Z,33.73
2019-04-10T08:46:48.289Z,30.83
2019-04-10T08:51:01.088Z,31.47
2019-04-10T08:55:13.522Z,32.30
2019-04-10T08:59:26.301Z,32.70
2019-04-10T09:03:39.211Z,30.47
2019-04-10T09:07:52.711Z,29.33
2019-04-10T09:12:05.706Z,27.57
2019-04-10T09:16:18.413Z,24.67
2019-04-10T09:20:31.307Z,23.40
2019-04-10T09:24:44.625Z,24.03
2019-04-10T09:28:57.357Z,21.77
2019-04-10T09:33:19.930Z,20.80
2019-04-10T09:37:24.640Z,19.13
2019-04-10T09:41:38.228Z,19.13
2019-04-10T09:45:51.474Z,19.83
2019-04-10T09:50:05.705Z,20.03
2019-04-10T09:54:18.090Z,17.83
2019-04-10T09:58:31.775Z,17.20
2019-04-10T10:02:45.187Z,17.33
2019-04-10T10:06:57.584Z,15.33
2019-04-10T10:11:09.939Z,17.33
2019-04-10T10:15:22.689Z,14.23
2019-04-10T10:19:36.254Z,14.00
2019-04-10T10:23:49.770Z,13.77
2019-04-10T10:28:02.870Z,13.27
2019-04-10T10:32:15.564Z,12.70
2019-04-10T10:36:36.778Z,12.77
2019-04-10T10:40:43.584Z,13.57
2019-04-10T10:44:56.453Z,13.53
2019-04-10T10:49:08.914Z,12.50
2019-04-10T10:53:22.010Z,11.23
2019-04-10T10:57:35.334Z,12.93
2019-04-10T11:01:48.482Z,13.53
2019-04-10T11:06:02.420Z,13.83
2019-04-10T11:10:19.649Z,13.13
2019-04-10T11:14:29.918Z,12.13
2019-04-10T11:18:42.684Z,10.93
2019-04-10T11:22:55.856Z,11.77
2019-04-10T11:27:09.921Z,12.17
2019-04-10T11:31:23.798Z,12.33
2019-04-10T11:35:37.331Z,12.70
2019-04-10T11:39:51.587Z,13.27
2019-04-10T11:44:04.392Z,12.47
2019-04-10T11:48:18.656Z,12.03
2019-04-10T11:56:47.250Z,11.33
2019-04-10T12:01:00.155Z,11.27
2019-04-10T12:05:18.497Z,10.50
2019-04-10T12:13:41.384Z,9.87
2019-04-10T12:17:56.165Z,7.20
2019-04-10T12:22:09.506Z,8.73
2019-04-10T12:26:22.069Z,8.97
2019-04-10T12:30:35.283Z,12.07
2019-04-10T12:34:48.630Z,12.70
2019-04-10T12:39:02.370Z,13.43
2019-04-10T12:43:14.740Z,13.57
2019-04-10T12:47:28.004Z,15.23
2019-04-10T12:51:41.470Z,16.63
2019-04-10T12:55:54.048Z,16.53
2019-04-10T13:00:10.272Z,19.13
2019-04-10T13:04:22.769Z,19.83
2019-04-10T13:08:53.425Z,21.53
2019-04-10T13:12:49.972Z,20.27
2019-04-10T13:17:02.920Z,21.53
2019-04-10T13:21:16.207Z,23.67
2019-04-10T13:25:28.656Z,24.00
2019-04-10T13:29:42.631Z,23.03
2019-04-10T13:33:55.347Z,24.37
2019-04-10T13:38:08.770Z,20.97
2019-04-10T13:42:21.263Z,21.33
2019-04-10T13:46:33.961Z,22.37
2019-04-10T13:50:48.675Z,17.87
2019-04-10T13:55:01.445Z,14.47
2019-04-10T13:59:15.304Z,15.37
2019-04-10T14:03:28.054Z,16.50
2019-04-10T14:07:40.841Z,18.53
2019-04-10T14:11:53.530Z,15.90
2019-04-10T14:16:06.515Z,15.40
2019-04-10T14:20:21.659Z,17.37
2019-04-10T14:24:42.851Z,15.90
2019-04-10T14:28:49.392Z,15.43
2019-04-10T14:33:02.939Z,15.30
2019-04-10T14:37:15.369Z,15.50
2019-04-10T14:41:27.778Z,13.97
2019-04-10T14:45:41.585Z,14.03
2019-04-10T14:49:55.421Z,14.10
2019-04-10T14:54:09.818Z,14.23
2019-04-10T14:58:28.085Z,14.10
2019-04-10T15:02:36.949Z,14.83
2019-04-10T15:06:50.011Z,15.63
2019-04-10T15:11:02.833Z,17.13
2019-04-10T15:15:16.402Z,18.70
2019-04-10T15:19:29.449Z,20.10
2019-04-10T15:23:42.608Z,20.93
2019-04-10T15:27:55.105Z,21.17
2019-04-10T15:32:08.472Z,21.67
2019-04-10T15:36:22.062Z,22.80
2019-04-10T15:40:34.497Z,22.90
2019-04-10T15:44:48.152Z,26.10
2019-04-10T15:49:01.040Z,25.73
2019-04-10T15:53:13.496Z,26.50
2019-04-10T15:57:26.899Z,24.43
2019-04-10T16:01:39.352Z,26.87
2019-04-10T16:05:52.293Z,27.90
2019-04-10T16:10:33.028Z,27.07
2019-04-10T16:14:46.590Z,26.80
2019-04-10T16:19:18.270Z,25.33
2019-04-10T16:23:52.772Z,25.37
2019-04-10T16:28:06.420Z,28.73
2019-04-10T16:32:19.061Z,29.53
2019-04-10T16:36:33.200Z,25.93
2019-04-10T16:40:46.046Z,28.63
2019-04-10T16:44:59.657Z,27.77
2019-04-10T16:49:12.756Z,27.27
2019-04-10T16:53:25.764Z,26.93
2019-04-10T16:57:38.788Z,26.47
2019-04-10T17:01:51.202Z,26.77
2019-04-10T17:06:04.046Z,27.50
2019-04-10T17:10:23.056Z,25.50
2019-04-10T17:14:32.792Z,24.83
2019-04-10T17:18:45.514Z,24.80
2019-04-10T17:22:58.372Z,23.53
2019-04-10T17:27:11.244Z,25.83
2019-04-10T17:31:24.640Z,27.60
2019-04-10T17:35:37.914Z,24.90
2019-04-10T17:39:51.462Z,26.47
2019-04-10T17:44:05.454Z,27.83
2019-04-10T17:48:18.108Z,27.40
2019-04-10T17:52:33.074Z,27.87
2019-04-10T17:56:46.518Z,28.47
2019-04-10T18:01:01.775Z,28.77
2019-04-10T18:05:14.822Z,30.43
2019-04-10T18:09:28.840Z,29.47
2019-04-10T18:13:42.699Z,30.33
2019-04-10T18:17:55.583Z,29.57
2019-04-10T18:22:08.397Z,32.97
2019-04-10T18:26:21.157Z,35.53
2019-04-10T18:30:35.333Z,36.43
2019-04-10T18:34:48.194Z,34.20
2019-04-10T18:39:00.516Z,36.57
2019-04-10T18:43:14.007Z,36.90
2019-04-10T18:47:27.115Z,38.30
2019-04-10T18:51:40.364Z,37.67
2019-04-10T18:55:53.036Z,39.37
2019-04-10T19:00:26.291Z,36.47
2019-04-10T19:04:47.394Z,39.17
2019-04-10T19:09:08.225Z,37.80
2019-04-10T19:13:14.990Z,40.90
2019-04-10T19:17:27.726Z,41.90
2019-04-10T19:21:40.455Z,40.77
2019-04-10T19:25:53.252Z,41.47
2019-04-10T19:30:08.485Z,40.13
2019-04-10T19:34:21.296Z,39.73
2019-04-10T19:38:33.749Z,40.23
2019-04-10T19:42:46.130Z,38.50
2019-04-10T19:46:59.061Z,38.83
2019-04-10T19:51:12.115Z,38.10
2019-04-10T19:55:24.909Z,39.50
2019-04-10T19:59:37.362Z,37.50
2019-04-10T20:03:50.250Z,39.57
2019-04-10T20:08:03.277Z,37.00
2019-04-10T20:12:16.155Z,38.80
2019-04-10T20:16:29.550Z,38.57
2019-04-10T20:20:43.604Z,37.33
2019-04-10T20:24:56.877Z,38.63
2019-04-10T20:29:10.798Z,38.43
2019-04-10T20:33:23.545Z,37.90
2019-04-10T20:37:36.599Z,37.67
2019-04-10T20:41:53.719Z,37.97
2019-04-10T20:46:03.865Z,36.87
2019-04-10T20:50:17.981Z,38.17
2019-04-10T20:54:30.879Z,36.03
2019-04-10T20:58:44.632Z,38.37
2019-04-10T21:02:58.584Z,37.93
2019-04-10T21:07:11.264Z,37.70
2019-04-10T21:11:24.724Z,37.00
2019-04-10T21:15:37.617Z,37.63
2019-04-10T21:19:51.545Z,38.80
2019-04-10T21:24:04.878Z,36.20
2019-04-10T21:28:18.380Z,35.40
2019-04-10T21:32:53.708Z,37.77
2019-04-10T21:37:06.661Z,37.67
2019-04-10T21:41:20.048Z,37.63
2019-04-10T21:45:32.737Z,37.17
2019-04-10T21:49:46.399Z,33.87
2019-04-10T21:53:59.964Z,34.07
2019-04-10T21:58:13.081Z,33.63
2019-04-10T22:02:27.296Z,33.90
2019-04-10T22:06:47.993Z,34.43
2019-04-10T22:11:00.827Z,36.37
2019-04-10T22:15:39.288Z,40.07
2019-04-10T22:19:52.847Z,39.07
2019-04-10T22:24:05.768Z,37.80
2019-04-10T22:28:19.032Z,38.20
2019-04-10T22:32:33.150Z,36.07
2019-04-10T22:36:47.197Z,36.67
2019-04-10T22:40:59.568Z,35.50
2019-04-10T22:45:25.865Z,37.03
2019-04-10T22:49:39.332Z,37.73
2019-04-10T22:53:52.141Z,37.90
2019-04-10T22:58:04.706Z,37.27
2019-04-10T23:02:17.144Z,35.07
2019-04-10T23:06:29.919Z,34.90
2019-04-10T23:10:43.386Z,34.77
2019-04-10T23:14:55.893Z,32.63
2019-04-10T23:19:09.869Z,33.10
2019-04-10T23:23:23.125Z,32.33
2019-04-10T23:27:35.735Z,33.33
2019-04-10T23:31:48.481Z,31.83
2019-04-10T23:36:02.042Z,33.07
2019-04-10T23:40:15.382Z,30.37
2019-04-10T23:44:28.831Z,30.00
2019-04-10T23:48:41.672Z,30.40
2019-04-10T23:52:54.172Z,29.10
2019-04-10T23:57:07.370Z,27.63
